sensor_id;sensor_type;location;lat;lon;timestamp;P1;durP1;ratioP1;P2;durP2;ratioP2
54805;SDS011;62866;55.776;37.496;2023-04-10T00:00:04;19.15;;;8.77;;
54805;SDS011;62866;55.776;37.496;2023-04-10T00:02:31;17.23;;;7.95;;
54805;SDS011;62866;55.776;37.496;2023-04-10T00:05:00;12.85;;;7.07;;
54805;SDS011;62866;55.776;37.496;2023-04-10T00:07:26;11.73;;;6.65;;
54805;SDS011;62866;55.776;37.496;2023-04-10T00:09:51;12.82;;;6.78;;
54805;SDS011;62866;55.776;37.496;2023-04-10T00:12:17;12.93;;;7.47;;
54805;SDS011;62866;55.776;37.496;2023-04-10T00:14:43;17.58;;;7.60;;
54805;SDS011;62866;55.776;37.496;2023-04-10T00:17:08;14.10;;;7.38;;
54805;SDS011;62866;55.776;37.496;2023-04-10T00:19:34;12.98;;;6.40;;
54805;SDS011;62866;55.776;37.496;2023-04-10T00:22:00;13.98;;;7.35;;
54805;SDS011;62866;55.776;37.496;2023-04-10T00:24:26;21.88;;;8.52;;
54805;SDS011;62866;55.776;37.496;2023-04-10T00:26:51;13.25;;;7.57;;
54805;SDS011;62866;55.776;37.496;2023-04-10T00:29:17;13.50;;;7.68;;
54805;SDS011;62866;55.776;37.496;2023-04-10T00:31:42;14.98;;;8.18;;
54805;SDS011;62866;55.776;37.496;2023-04-10T00:34:08;14.18;;;7.90;;
54805;SDS011;62866;55.776;37.496;2023-04-10T00:36:34;16.25;;;8.10;;
54805;SDS011;62866;55.776;37.496;2023-04-10T00:39:00;14.02;;;8.20;;
54805;SDS011;62866;55.776;37.496;2023-04-10T00:41:25;17.38;;;7.47;;
54805;SDS011;62866;55.776;37.496;2023-04-10T00:43:55;17.48;;;7.97;;
54805;SDS011;62866;55.776;37.496;2023-04-10T00:46:21;15.80;;;7.88;;
54805;SDS011;62866;55.776;37.496;2023-04-10T00:48:47;16.48;;;8.07;;
54805;SDS011;62866;55.776;37.496;2023-04-10T00:51:14;15.73;;;7.15;;
54805;SDS011;62866;55.776;37.496;2023-04-10T00:53:39;14.85;;;7.80;;
54805;SDS011;62866;55.776;37.496;2023-04-10T00:56:05;14.35;;;8.43;;
54805;SDS011;62866;55.776;37.496;2023-04-10T00:58:31;16.45;;;7.43;;
54805;SDS011;62866;55.776;37.496;2023-04-10T01:00:57;16.80;;;8.60;;
54805;SDS011;62866;55.776;37.496;2023-04-10T01:03:22;14.90;;;7.97;;
54805;SDS011;62866;55.776;37.496;2023-04-10T01:08:21;16.55;;;8.60;;
54805;SDS011;62866;55.776;37.496;2023-04-10T01:22:09;15.18;;;7.88;;
54805;SDS011;62866;55.776;37.496;2023-04-10T01:24:55;17.40;;;8.25;;
54805;SDS011;62866;55.776;37.496;2023-04-10T01:27:59;18.67;;;8.10;;
54805;SDS011;62866;55.776;37.496;2023-04-10T01:30:29;15.73;;;8.07;;
54805;SDS011;62866;55.776;37.496;2023-04-10T01:32:58;15.98;;;7.72;;
54805;SDS011;62866;55.776;37.496;2023-04-10T01:35:26;18.95;;;8.25;;
54805;SDS011;62866;55.776;37.496;2023-04-10T01:37:53;15.55;;;8.20;;
54805;SDS011;62866;55.776;37.496;2023-04-10T01:40:20;16.75;;;8.48;;
54805;SDS011;62866;55.776;37.496;2023-04-10T01:42:50;21.55;;;8.40;;
54805;SDS011;62866;55.776;37.496;2023-04-10T01:45:19;18.85;;;8.65;;
54805;SDS011;62866;55.776;37.496;2023-04-10T01:47:49;22.30;;;9.15;;
54805;SDS011;62866;55.776;37.496;2023-04-10T01:50:16;18.15;;;9.40;;
54805;SDS011;62866;55.776;37.496;2023-04-10T01:52:44;14.57;;;7.63;;
54805;SDS011;62866;55.776;37.496;2023-04-10T01:55:10;13.18;;;7.28;;
54805;SDS011;62866;55.776;37.496;2023-04-10T01:57:36;18.13;;;8.45;;
54805;SDS011;62866;55.776;37.496;2023-04-10T02:00:02;16.70;;;9.13;;
54805;SDS011;62866;55.776;37.496;2023-04-10T02:02:31;15.40;;;8.15;;
54805;SDS011;62866;55.776;37.496;2023-04-10T02:04:58;14.48;;;6.60;;
54805;SDS011;62866;55.776;37.496;2023-04-10T02:07:28;16.08;;;7.50;;
54805;SDS011;62866;55.776;37.496;2023-04-10T02:10:14;16.77;;;8.93;;
54805;SDS011;62866;55.776;37.496;2023-04-10T02:12:50;17.92;;;9.63;;
54805;SDS011;62866;55.776;37.496;2023-04-10T02:15:20;14.77;;;9.45;;
54805;SDS011;62866;55.776;37.496;2023-04-10T02:17:48;16.27;;;8.32;;
54805;SDS011;62866;55.776;37.496;2023-04-10T02:20:16;19.17;;;9.73;;
54805;SDS011;62866;55.776;37.496;2023-04-10T02:22:45;20.05;;;9.82;;
54805;SDS011;62866;55.776;37.496;2023-04-10T02:25:11;9.18;;;5.95;;
54805;SDS011;62866;55.776;37.496;2023-04-10T02:27:37;21.02;;;9.65;;
54805;SDS011;62866;55.776;37.496;2023-04-10T02:30:03;19.50;;;9.85;;
54805;SDS011;62866;55.776;37.496;2023-04-10T02:32:30;18.15;;;8.65;;
54805;SDS011;62866;55.776;37.496;2023-04-10T02:34:57;23.95;;;10.00;;
54805;SDS011;62866;55.776;37.496;2023-04-10T02:37:23;17.23;;;8.93;;
54805;SDS011;62866;55.776;37.496;2023-04-10T02:39:49;15.68;;;8.98;;
54805;SDS011;62866;55.776;37.496;2023-04-10T02:42:15;16.98;;;7.72;;
54805;SDS011;62866;55.776;37.496;2023-04-10T02:44:41;19.20;;;7.63;;
54805;SDS011;62866;55.776;37.496;2023-04-10T02:47:06;15.13;;;7.90;;
54805;SDS011;62866;55.776;37.496;2023-04-10T02:49:32;13.68;;;8.10;;
54805;SDS011;62866;55.776;37.496;2023-04-10T02:51:59;16.48;;;9.20;;
54805;SDS011;62866;55.776;37.496;2023-04-10T02:54:25;18.63;;;8.15;;
54805;SDS011;62866;55.776;37.496;2023-04-10T02:56:50;17.40;;;8.40;;
54805;SDS011;62866;55.776;37.496;2023-04-10T02:59:16;17.73;;;8.05;;
54805;SDS011;62866;55.776;37.496;2023-04-10T03:01:42;15.43;;;8.48;;
54805;SDS011;62866;55.776;37.496;2023-04-10T03:04:08;18.45;;;8.88;;
54805;SDS011;62866;55.776;37.496;2023-04-10T03:06:33;18.00;;;8.05;;
54805;SDS011;62866;55.776;37.496;2023-04-10T03:08:59;12.90;;;6.70;;
54805;SDS011;62866;55.776;37.496;2023-04-10T03:11:25;12.20;;;7.10;;
54805;SDS011;62866;55.776;37.496;2023-04-10T03:13:51;15.00;;;8.20;;
54805;SDS011;62866;55.776;37.496;2023-04-10T03:16:16;16.00;;;7.47;;
54805;SDS011;62866;55.776;37.496;2023-04-10T03:18:42;14.23;;;7.63;;
54805;SDS011;62866;55.776;37.496;2023-04-10T03:21:08;13.30;;;7.05;;
54805;SDS011;62866;55.776;37.496;2023-04-10T03:23:34;15.07;;;7.60;;
54805;SDS011;62866;55.776;37.496;2023-04-10T03:26:00;16.33;;;7.97;;
54805;SDS011;62866;55.776;37.496;2023-04-10T03:28:27;11.63;;;6.78;;
54805;SDS011;62866;55.776;37.496;2023-04-10T03:30:53;11.20;;;6.20;;
54805;SDS011;62866;55.776;37.496;2023-04-10T03:33:20;13.52;;;6.50;;
54805;SDS011;62866;55.776;37.496;2023-04-10T03:35:46;10.48;;;6.05;;
54805;SDS011;62866;55.776;37.496;2023-04-10T03:38:11;12.70;;;6.47;;
54805;SDS011;62866;55.776;37.496;2023-04-10T03:40:37;12.38;;;6.38;;
54805;SDS011;62866;55.776;37.496;2023-04-10T03:43:03;10.48;;;6.00;;
54805;SDS011;62866;55.776;37.496;2023-04-10T03:45:28;12.50;;;6.82;;
54805;SDS011;62866;55.776;37.496;2023-04-10T03:47:54;12.70;;;6.30;;
54805;SDS011;62866;55.776;37.496;2023-04-10T03:50:20;8.75;;;5.20;;
54805;SDS011;62866;55.776;37.496;2023-04-10T03:52:45;10.15;;;5.90;;
54805;SDS011;62866;55.776;37.496;2023-04-10T03:55:13;10.52;;;6.28;;
54805;SDS011;62866;55.776;37.496;2023-04-10T03:57:43;12.98;;;6.32;;
54805;SDS011;62866;55.776;37.496;2023-04-10T04:00:12;13.30;;;6.45;;
54805;SDS011;62866;55.776;37.496;2023-04-10T04:02:38;16.65;;;8.27;;
54805;SDS011;62866;55.776;37.496;2023-04-10T04:05:04;16.42;;;6.82;;
54805;SDS011;62866;55.776;37.496;2023-04-10T04:07:30;15.98;;;6.25;;
54805;SDS011;62866;55.776;37.496;2023-04-10T04:09:55;9.90;;;5.57;;
54805;SDS011;62866;55.776;37.496;2023-04-10T04:12:21;12.75;;;6.28;;
54805;SDS011;62866;55.776;37.496;2023-04-10T04:14:47;11.90;;;6.93;;
54805;SDS011;62866;55.776;37.496;2023-04-10T04:17:12;11.55;;;6.35;;
54805;SDS011;62866;55.776;37.496;2023-04-10T04:19:38;20.73;;;7.82;;
54805;SDS011;62866;55.776;37.496;2023-04-10T04:22:03;13.02;;;6.63;;
54805;SDS011;62866;55.776;37.496;2023-04-10T04:24:29;15.65;;;6.60;;
54805;SDS011;62866;55.776;37.496;2023-04-10T04:26:54;14.50;;;7.00;;
54805;SDS011;62866;55.776;37.496;2023-04-10T04:29:21;13.35;;;5.93;;
54805;SDS011;62866;55.776;37.496;2023-04-10T04:31:47;11.88;;;5.93;;
54805;SDS011;62866;55.776;37.496;2023-04-10T04:34:12;13.70;;;7.05;;
54805;SDS011;62866;55.776;37.496;2023-04-10T04:36:38;14.82;;;5.72;;
54805;SDS011;62866;55.776;37.496;2023-04-10T04:39:04;9.68;;;5.70;;
54805;SDS011;62866;55.776;37.496;2023-04-10T04:41:29;7.78;;;4.47;;
54805;SDS011;62866;55.776;37.496;2023-04-10T04:43:59;9.75;;;5.45;;
54805;SDS011;62866;55.776;37.496;2023-04-10T04:46:29;19.50;;;8.45;;
54805;SDS011;62866;55.776;37.496;2023-04-10T04:48:54;11.70;;;5.53;;
54805;SDS011;62866;55.776;37.496;2023-04-10T04:51:20;12.27;;;5.80;;
54805;SDS011;62866;55.776;37.496;2023-04-10T04:53:45;7.40;;;4.72;;
54805;SDS011;62866;55.776;37.496;2023-04-10T04:56:11;10.68;;;4.63;;
54805;SDS011;62866;55.776;37.496;2023-04-10T04:58:36;10.38;;;5.60;;
54805;SDS011;62866;55.776;37.496;2023-04-10T05:01:02;11.10;;;5.63;;
54805;SDS011;62866;55.776;37.496;2023-04-10T05:03:28;14.85;;;5.88;;
54805;SDS011;62866;55.776;37.496;2023-04-10T05:05:53;10.10;;;4.47;;
54805;SDS011;62866;55.776;37.496;2023-04-10T05:08:20;24.08;;;6.00;;
54805;SDS011;62866;55.776;37.496;2023-04-10T05:10:45;14.68;;;5.32;;
54805;SDS011;62866;55.776;37.496;2023-04-10T05:13:11;9.35;;;4.93;;
54805;SDS011;62866;55.776;37.496;2023-04-10T05:15:37;20.65;;;5.30;;
54805;SDS011;62866;55.776;37.496;2023-04-10T05:18:03;9.48;;;4.80;;
54805;SDS011;62866;55.776;37.496;2023-04-10T05:20:29;8.55;;;5.90;;
54805;SDS011;62866;55.776;37.496;2023-04-10T05:22:55;7.38;;;4.60;;
54805;SDS011;62866;55.776;37.496;2023-04-10T05:25:22;11.85;;;5.82;;
54805;SDS011;62866;55.776;37.496;2023-04-10T05:27:48;10.82;;;5.78;;
54805;SDS011;62866;55.776;37.496;2023-04-10T05:30:13;14.50;;;6.43;;
54805;SDS011;62866;55.776;37.496;2023-04-10T05:32:39;9.30;;;5.00;;
54805;SDS011;62866;55.776;37.496;2023-04-10T05:35:05;6.95;;;4.80;;
54805;SDS011;62866;55.776;37.496;2023-04-10T05:37:31;7.60;;;4.97;;
54805;SDS011;62866;55.776;37.496;2023-04-10T05:39:57;9.25;;;5.68;;
54805;SDS011;62866;55.776;37.496;2023-04-10T05:42:23;11.27;;;5.40;;
54805;SDS011;62866;55.776;37.496;2023-04-10T05:44:49;6.65;;;4.97;;
54805;SDS011;62866;55.776;37.496;2023-04-10T05:47:15;9.35;;;5.90;;
54805;SDS011;62866;55.776;37.496;2023-04-10T05:49:40;9.55;;;5.28;;
54805;SDS011;62866;55.776;37.496;2023-04-10T05:52:06;12.38;;;6.50;;
54805;SDS011;62866;55.776;37.496;2023-04-10T05:54:31;9.50;;;4.57;;
54805;SDS011;62866;55.776;37.496;2023-04-10T05:56:57;8.82;;;5.60;;
54805;SDS011;62866;55.776;37.496;2023-04-10T05:59:22;10.30;;;6.25;;
54805;SDS011;62866;55.776;37.496;2023-04-10T06:01:48;8.57;;;5.47;;
54805;SDS011;62866;55.776;37.496;2023-04-10T06:04:13;9.50;;;5.57;;
54805;SDS011;62866;55.776;37.496;2023-04-10T06:06:39;9.90;;;5.80;;
54805;SDS011;62866;55.776;37.496;2023-04-10T06:09:05;6.45;;;4.25;;
54805;SDS011;62866;55.776;37.496;2023-04-10T06:11:30;6.82;;;4.25;;
54805;SDS011;62866;55.776;37.496;2023-04-10T06:13:56;5.47;;;4.15;;
54805;SDS011;62866;55.776;37.496;2023-04-10T06:16:21;8.05;;;4.85;;
54805;SDS011;62866;55.776;37.496;2023-04-10T06:18:47;8.02;;;3.80;;
54805;SDS011;62866;55.776;37.496;2023-04-10T06:21:15;10.27;;;3.95;;
54805;SDS011;62866;55.776;37.496;2023-04-10T06:23:40;6.95;;;4.20;;
54805;SDS011;62866;55.776;37.496;2023-04-10T06:26:06;7.00;;;4.30;;
54805;SDS011;62866;55.776;37.496;2023-04-10T06:28:31;5.93;;;3.72;;
54805;SDS011;62866;55.776;37.496;2023-04-10T06:30:57;5.18;;;3.55;;
54805;SDS011;62866;55.776;37.496;2023-04-10T06:33:22;5.72;;;3.50;;
54805;SDS011;62866;55.776;37.496;2023-04-10T06:35:48;5.55;;;3.67;;
54805;SDS011;62866;55.776;37.496;2023-04-10T06:38:15;6.90;;;4.15;;
54805;SDS011;62866;55.776;37.496;2023-04-10T06:40:41;9.20;;;4.72;;
54805;SDS011;62866;55.776;37.496;2023-04-10T06:43:06;6.70;;;4.85;;
54805;SDS011;62866;55.776;37.496;2023-04-10T06:45:32;13.55;;;4.47;;
54805;SDS011;62866;55.776;37.496;2023-04-10T06:48:00;6.20;;;4.32;;
54805;SDS011;62866;55.776;37.496;2023-04-10T06:50:26;6.05;;;3.92;;
54805;SDS011;62866;55.776;37.496;2023-04-10T06:52:52;11.00;;;5.68;;
54805;SDS011;62866;55.776;37.496;2023-04-10T06:55:20;8.30;;;4.90;;
54805;SDS011;62866;55.776;37.496;2023-04-10T06:57:45;9.27;;;4.95;;
54805;SDS011;62866;55.776;37.496;2023-04-10T07:00:11;11.50;;;5.50;;
54805;SDS011;62866;55.776;37.496;2023-04-10T07:02:37;8.63;;;4.85;;
54805;SDS011;62866;55.776;37.496;2023-04-10T07:05:02;8.57;;;5.75;;
54805;SDS011;62866;55.776;37.496;2023-04-10T07:07:28;14.07;;;6.40;;
54805;SDS011;62866;55.776;37.496;2023-04-10T07:09:55;9.68;;;4.88;;
54805;SDS011;62866;55.776;37.496;2023-04-10T07:12:22;6.82;;;4.35;;
54805;SDS011;62866;55.776;37.496;2023-04-10T07:14:47;8.20;;;5.78;;
54805;SDS011;62866;55.776;37.496;2023-04-10T07:17:13;10.18;;;5.80;;
54805;SDS011;62866;55.776;37.496;2023-04-10T07:19:38;10.07;;;6.18;;
54805;SDS011;62866;55.776;37.496;2023-04-10T07:22:04;9.45;;;4.43;;
54805;SDS011;62866;55.776;37.496;2023-04-10T07:24:31;7.75;;;4.80;;
54805;SDS011;62866;55.776;37.496;2023-04-10T07:26:56;5.50;;;4.15;;
54805;SDS011;62866;55.776;37.496;2023-04-10T07:29:22;6.60;;;4.80;;
54805;SDS011;62866;55.776;37.496;2023-04-10T07:31:48;5.63;;;4.63;;
54805;SDS011;62866;55.776;37.496;2023-04-10T07:34:13;5.88;;;4.50;;
54805;SDS011;62866;55.776;37.496;2023-04-10T07:36:39;6.80;;;4.40;;
54805;SDS011;62866;55.776;37.496;2023-04-10T07:39:05;8.77;;;4.47;;
54805;SDS011;62866;55.776;37.496;2023-04-10T07:41:30;5.43;;;4.47;;
54805;SDS011;62866;55.776;37.496;2023-04-10T07:43:56;6.47;;;4.47;;
54805;SDS011;62866;55.776;37.496;2023-04-10T07:46:21;13.05;;;5.53;;
54805;SDS011;62866;55.776;37.496;2023-04-10T07:48:47;5.35;;;4.03;;
54805;SDS011;62866;55.776;37.496;2023-04-10T07:51:13;6.50;;;4.05;;
54805;SDS011;62866;55.776;37.496;2023-04-10T07:53:39;4.95;;;4.30;;
54805;SDS011;62866;55.776;37.496;2023-04-10T07:56:06;6.75;;;4.97;;
54805;SDS011;62866;55.776;37.496;2023-04-10T07:58:32;4.18;;;3.78;;
54805;SDS011;62866;55.776;37.496;2023-04-10T08:00:57;4.03;;;3.65;;
54805;SDS011;62866;55.776;37.496;2023-04-10T08:03:23;4.82;;;3.40;;
54805;SDS011;62866;55.776;37.496;2023-04-10T08:05:50;6.75;;;4.47;;
54805;SDS011;62866;55.776;37.496;2023-04-10T08:08:15;7.40;;;4.63;;
54805;SDS011;62866;55.776;37.496;2023-04-10T08:10:41;5.22;;;4.50;;
54805;SDS011;62866;55.776;37.496;2023-04-10T08:13:07;6.68;;;4.85;;
54805;SDS011;62866;55.776;37.496;2023-04-10T08:15:32;6.60;;;4.60;;
54805;SDS011;62866;55.776;37.496;2023-04-10T08:17:58;5.63;;;5.10;;
54805;SDS011;62866;55.776;37.496;2023-04-10T08:20:23;8.52;;;4.97;;
54805;SDS011;62866;55.776;37.496;2023-04-10T08:22:49;8.45;;;6.05;;
54805;SDS011;62866;55.776;37.496;2023-04-10T08:25:14;6.50;;;5.38;;
54805;SDS011;62866;55.776;37.496;2023-04-10T08:27:40;6.32;;;4.82;;
54805;SDS011;62866;55.776;37.496;2023-04-10T08:30:06;6.75;;;5.22;;
54805;SDS011;62866;55.776;37.496;2023-04-10T08:32:32;8.45;;;5.18;;
54805;SDS011;62866;55.776;37.496;2023-04-10T08:34:57;8.65;;;5.82;;
54805;SDS011;62866;55.776;37.496;2023-04-10T08:37:24;11.57;;;5.88;;
54805;SDS011;62866;55.776;37.496;2023-04-10T08:39:51;7.53;;;5.53;;
54805;SDS011;62866;55.776;37.496;2023-04-10T08:42:16;6.90;;;4.95;;
54805;SDS011;62866;55.776;37.496;2023-04-10T08:44:42;7.18;;;4.93;;
54805;SDS011;62866;55.776;37.496;2023-04-10T08:47:08;11.25;;;5.93;;
54805;SDS011;62866;55.776;37.496;2023-04-10T08:49:50;7.95;;;5.22;;
54805;SDS011;62866;55.776;37.496;2023-04-10T08:52:22;9.32;;;4.68;;
54805;SDS011;62866;55.776;37.496;2023-04-10T08:54:50;9.55;;;5.80;;
54805;SDS011;62866;55.776;37.496;2023-04-10T08:57:22;11.63;;;6.25;;
54805;SDS011;62866;55.776;37.496;2023-04-10T08:59:49;10.40;;;5.88;;
54805;SDS011;62866;55.776;37.496;2023-04-10T09:02:15;8.07;;;5.88;;
54805;SDS011;62866;55.776;37.496;2023-04-10T09:04:49;7.45;;;4.53;;
54805;SDS011;62866;55.776;37.496;2023-04-10T09:07:15;7.28;;;5.55;;
54805;SDS011;62866;55.776;37.496;2023-04-10T09:09:41;10.00;;;6.10;;
54805;SDS011;62866;55.776;37.496;2023-04-10T09:12:07;11.15;;;6.63;;
54805;SDS011;62866;55.776;37.496;2023-04-10T09:14:34;10.77;;;6.25;;
54805;SDS011;62866;55.776;37.496;2023-04-10T09:17:14;6.93;;;4.43;;
54805;SDS011;62866;55.776;37.496;2023-04-10T09:19:43;9.18;;;5.10;;
54805;SDS011;62866;55.776;37.496;2023-04-10T09:24:44;9.27;;;4.50;;
54805;SDS011;62866;55.776;37.496;2023-04-10T09:27:10;8.10;;;5.32;;
54805;SDS011;62866;55.776;37.496;2023-04-10T09:29:55;13.07;;;6.65;;
54805;SDS011;62866;55.776;37.496;2023-04-10T09:32:40;8.25;;;4.75;;
54805;SDS011;62866;55.776;37.496;2023-04-10T09:35:10;7.90;;;5.22;;
54805;SDS011;62866;55.776;37.496;2023-04-10T09:37:40;6.82;;;4.55;;
54805;SDS011;62866;55.776;37.496;2023-04-10T09:42:46;7.70;;;3.92;;
54805;SDS011;62866;55.776;37.496;2023-04-10T09:45:12;6.38;;;5.22;;
54805;SDS011;62866;55.776;37.496;2023-04-10T09:47:38;8.27;;;5.88;;
54805;SDS011;62866;55.776;37.496;2023-04-10T09:50:03;7.53;;;4.70;;
54805;SDS011;62866;55.776;37.496;2023-04-10T09:52:30;7.97;;;5.15;;
54805;SDS011;62866;55.776;37.496;2023-04-10T09:55:01;8.65;;;5.55;;
54805;SDS011;62866;55.776;37.496;2023-04-10T09:57:32;9.55;;;6.20;;
54805;SDS011;62866;55.776;37.496;2023-04-10T10:00:03;9.20;;;5.50;;
54805;SDS011;62866;55.776;37.496;2023-04-10T10:02:32;8.32;;;5.85;;
54805;SDS011;62866;55.776;37.496;2023-04-10T10:05:02;12.32;;;4.97;;
54805;SDS011;62866;55.776;37.496;2023-04-10T10:07:29;12.27;;;5.90;;
54805;SDS011;62866;55.776;37.496;2023-04-10T10:09:56;9.43;;;5.65;;
54805;SDS011;62866;55.776;37.496;2023-04-10T10:12:23;10.32;;;5.10;;
54805;SDS011;62866;55.776;37.496;2023-04-10T10:20:33;7.28;;;5.25;;
54805;SDS011;62866;55.776;37.496;2023-04-10T10:23:05;8.85;;;5.40;;
54805;SDS011;62866;55.776;37.496;2023-04-10T10:25:32;10.05;;;5.75;;
54805;SDS011;62866;55.776;37.496;2023-04-10T10:28:01;8.55;;;5.75;;
54805;SDS011;62866;55.776;37.496;2023-04-10T10:30:32;7.82;;;5.05;;
54805;SDS011;62866;55.776;37.496;2023-04-10T10:33:00;11.13;;;5.80;;
54805;SDS011;62866;55.776;37.496;2023-04-10T10:35:30;9.15;;;4.78;;
54805;SDS011;62866;55.776;37.496;2023-04-10T10:37:57;7.65;;;5.30;;
54805;SDS011;62866;55.776;37.496;2023-04-10T10:40:46;11.00;;;6.25;;
54805;SDS011;62866;55.776;37.496;2023-04-10T10:43:44;8.50;;;5.47;;
54805;SDS011;62866;55.776;37.496;2023-04-10T10:46:21;6.63;;;4.50;;
54805;SDS011;62866;55.776;37.496;2023-04-10T10:48:56;9.70;;;4.45;;
54805;SDS011;62866;55.776;37.496;2023-04-10T10:51:23;7.85;;;5.05;;
54805;SDS011;62866;55.776;37.496;2023-04-10T10:54:26;9.43;;;5.15;;
54805;SDS011;62866;55.776;37.496;2023-04-10T10:56:51;7.38;;;5.20;;
54805;SDS011;62866;55.776;37.496;2023-04-10T10:59:17;8.25;;;5.20;;
54805;SDS011;62866;55.776;37.496;2023-04-10T11:02:11;8.88;;;5.20;;
54805;SDS011;62866;55.776;37.496;2023-04-10T11:04:46;9.23;;;5.38;;
54805;SDS011;62866;55.776;37.496;2023-04-10T11:07:13;8.98;;;6.03;;
54805;SDS011;62866;55.776;37.496;2023-04-10T11:12:20;9.73;;;6.55;;
54805;SDS011;62866;55.776;37.496;2023-04-10T11:15:00;9.73;;;6.68;;
54805;SDS011;62866;55.776;37.496;2023-04-10T11:20:11;10.93;;;5.60;;
54805;SDS011;62866;55.776;37.496;2023-04-10T11:23:11;11.07;;;6.05;;
54805;SDS011;62866;55.776;37.496;2023-04-10T11:25:52;9.80;;;5.60;;
54805;SDS011;62866;55.776;37.496;2023-04-10T11:31:20;9.07;;;6.25;;
54805;SDS011;62866;55.776;37.496;2023-04-10T11:34:01;10.18;;;5.30;;
54805;SDS011;62866;55.776;37.496;2023-04-10T11:36:42;10.93;;;5.50;;
54805;SDS011;62866;55.776;37.496;2023-04-10T11:39:09;8.23;;;5.75;;
54805;SDS011;62866;55.776;37.496;2023-04-10T11:41:46;8.70;;;5.78;;
54805;SDS011;62866;55.776;37.496;2023-04-10T11:47:11;8.52;;;5.60;;
54805;SDS011;62866;55.776;37.496;2023-04-10T11:49:45;9.45;;;5.90;;
54805;SDS011;62866;55.776;37.496;2023-04-10T11:52:25;6.60;;;4.75;;
54805;SDS011;62866;55.776;37.496;2023-04-10T11:54:51;11.02;;;6.57;;
54805;SDS011;62866;55.776;37.496;2023-04-10T11:57:16;8.43;;;6.05;;
54805;SDS011;62866;55.776;37.496;2023-04-10T11:59:47;9.10;;;5.15;;
54805;SDS011;62866;55.776;37.496;2023-04-10T12:02:14;9.40;;;5.93;;
54805;SDS011;62866;55.776;37.496;2023-04-10T12:04:40;11.63;;;6.57;;
54805;SDS011;62866;55.776;37.496;2023-04-10T12:07:08;8.95;;;5.53;;
54805;SDS011;62866;55.776;37.496;2023-04-10T12:09:35;12.85;;;6.35;;
54805;SDS011;62866;55.776;37.496;2023-04-10T12:14:30;11.75;;;6.00;;
54805;SDS011;62866;55.776;37.496;2023-04-10T12:17:00;10.32;;;5.57;;
54805;SDS011;62866;55.776;37.496;2023-04-10T12:19:27;14.23;;;5.68;;
54805;SDS011;62866;55.776;37.496;2023-04-10T12:21:54;9.90;;;5.60;;
54805;SDS011;62866;55.776;37.496;2023-04-10T12:27:22;9.80;;;5.60;;
54805;SDS011;62866;55.776;37.496;2023-04-10T12:29:52;8.85;;;6.13;;
54805;SDS011;62866;55.776;37.496;2023-04-10T12:32:19;11.60;;;6.50;;
54805;SDS011;62866;55.776;37.496;2023-04-10T12:34:51;14.32;;;5.32;;
54805;SDS011;62866;55.776;37.496;2023-04-10T12:37:21;9.80;;;6.55;;
54805;SDS011;62866;55.776;37.496;2023-04-10T12:39:46;8.38;;;5.32;;
54805;SDS011;62866;55.776;37.496;2023-04-10T12:42:16;10.40;;;5.40;;
54805;SDS011;62866;55.776;37.496;2023-04-10T12:47:23;12.73;;;7.40;;
54805;SDS011;62866;55.776;37.496;2023-04-10T12:50:06;9.20;;;6.38;;
54805;SDS011;62866;55.776;37.496;2023-04-10T12:52:37;6.97;;;5.00;;
54805;SDS011;62866;55.776;37.496;2023-04-10T12:55:11;13.85;;;6.40;;
54805;SDS011;62866;55.776;37.496;2023-04-10T12:57:37;10.23;;;5.38;;
54805;SDS011;62866;55.776;37.496;2023-04-10T13:00:04;14.38;;;6.13;;
54805;SDS011;62866;55.776;37.496;2023-04-10T13:02:31;7.68;;;4.72;;
54805;SDS011;62866;55.776;37.496;2023-04-10T13:04:56;12.63;;;7.15;;
54805;SDS011;62866;55.776;37.496;2023-04-10T13:07:23;8.32;;;4.65;;
54805;SDS011;62866;55.776;37.496;2023-04-10T13:09:48;9.57;;;6.55;;
54805;SDS011;62866;55.776;37.496;2023-04-10T13:12:14;9.65;;;5.82;;
54805;SDS011;62866;55.776;37.496;2023-04-10T13:14:40;12.10;;;6.75;;
54805;SDS011;62866;55.776;37.496;2023-04-10T13:17:06;12.85;;;7.35;;
54805;SDS011;62866;55.776;37.496;2023-04-10T13:19:31;12.57;;;6.63;;
54805;SDS011;62866;55.776;37.496;2023-04-10T13:21:57;13.85;;;7.38;;
54805;SDS011;62866;55.776;37.496;2023-04-10T13:24:25;14.45;;;7.78;;
54805;SDS011;62866;55.776;37.496;2023-04-10T13:26:51;13.60;;;7.35;;
54805;SDS011;62866;55.776;37.496;2023-04-10T13:29:16;13.38;;;6.82;;
54805;SDS011;62866;55.776;37.496;2023-04-10T13:31:42;13.02;;;6.75;;
54805;SDS011;62866;55.776;37.496;2023-04-10T13:34:08;14.85;;;7.15;;
54805;SDS011;62866;55.776;37.496;2023-04-10T13:36:33;16.92;;;7.88;;
54805;SDS011;62866;55.776;37.496;2023-04-10T13:38:59;13.98;;;7.13;;
54805;SDS011;62866;55.776;37.496;2023-04-10T13:41:24;10.02;;;6.32;;
54805;SDS011;62866;55.776;37.496;2023-04-10T13:43:50;8.98;;;5.03;;
54805;SDS011;62866;55.776;37.496;2023-04-10T13:46:15;11.88;;;6.45;;
54805;SDS011;62866;55.776;37.496;2023-04-10T13:48:41;11.82;;;6.63;;
54805;SDS011;62866;55.776;37.496;2023-04-10T13:51:07;14.88;;;6.75;;
54805;SDS011;62866;55.776;37.496;2023-04-10T13:53:33;12.77;;;7.75;;
54805;SDS011;62866;55.776;37.496;2023-04-10T13:55:58;18.30;;;7.50;;
54805;SDS011;62866;55.776;37.496;2023-04-10T13:58:24;20.23;;;10.15;;
54805;SDS011;62866;55.776;37.496;2023-04-10T14:00:52;12.05;;;7.15;;
54805;SDS011;62866;55.776;37.496;2023-04-10T14:03:18;16.85;;;8.05;;
54805;SDS011;62866;55.776;37.496;2023-04-10T14:05:44;14.63;;;5.70;;
54805;SDS011;62866;55.776;37.496;2023-04-10T14:08:09;10.70;;;6.03;;
54805;SDS011;62866;55.776;37.496;2023-04-10T14:10:38;14.52;;;7.28;;
54805;SDS011;62866;55.776;37.496;2023-04-10T14:13:04;12.32;;;7.93;;
54805;SDS011;62866;55.776;37.496;2023-04-10T14:15:31;9.48;;;5.22;;
54805;SDS011;62866;55.776;37.496;2023-04-10T14:17:57;17.02;;;8.00;;
54805;SDS011;62866;55.776;37.496;2023-04-10T14:20:23;18.85;;;8.48;;
54805;SDS011;62866;55.776;37.496;2023-04-10T14:22:48;8.85;;;4.78;;
54805;SDS011;62866;55.776;37.496;2023-04-10T14:25:14;14.82;;;7.30;;
54805;SDS011;62866;55.776;37.496;2023-04-10T14:27:40;16.58;;;7.47;;
54805;SDS011;62866;55.776;37.496;2023-04-10T14:30:07;12.20;;;6.63;;
54805;SDS011;62866;55.776;37.496;2023-04-10T14:32:33;11.68;;;6.68;;
54805;SDS011;62866;55.776;37.496;2023-04-10T14:34:59;10.35;;;5.90;;
54805;SDS011;62866;55.776;37.496;2023-04-10T14:37:24;17.33;;;7.28;;
54805;SDS011;62866;55.776;37.496;2023-04-10T14:39:50;16.05;;;8.32;;
54805;SDS011;62866;55.776;37.496;2023-04-10T14:42:15;17.05;;;8.77;;
54805;SDS011;62866;55.776;37.496;2023-04-10T14:44:41;13.30;;;8.00;;
54805;SDS011;62866;55.776;37.496;2023-04-10T14:47:06;12.75;;;5.85;;
54805;SDS011;62866;55.776;37.496;2023-04-10T14:49:32;14.73;;;6.53;;
54805;SDS011;62866;55.776;37.496;2023-04-10T14:51:58;23.67;;;8.27;;
54805;SDS011;62866;55.776;37.496;2023-04-10T14:54:23;9.30;;;5.18;;
54805;SDS011;62866;55.776;37.496;2023-04-10T14:56:49;21.17;;;9.50;;
54805;SDS011;62866;55.776;37.496;2023-04-10T14:59:15;10.90;;;5.75;;
54805;SDS011;62866;55.776;37.496;2023-04-10T15:01:41;8.07;;;4.20;;
54805;SDS011;62866;55.776;37.496;2023-04-10T15:04:07;13.43;;;6.85;;
54805;SDS011;62866;55.776;37.496;2023-04-10T15:06:32;24.30;;;5.13;;
54805;SDS011;62866;55.776;37.496;2023-04-10T15:08:58;19.33;;;9.05;;
54805;SDS011;62866;55.776;37.496;2023-04-10T15:11:24;19.27;;;9.65;;